sensor_id;sensor_type;location;lat;lon;timestamp;pressure;altitude;pressure_sealevel;temperature;humidity
26865;BME280;40618;51.166;10.322;2023-05-10T00:02:06;96638.03;;;13.65;51.90
26865;BME280;40618;51.166;10.322;2023-05-10T00:04:32;96627.53;;;13.66;51.95
26865;BME280;40618;51.166;10.322;2023-05-10T00:06:58;96626.69;;;13.66;52.04
26865;BME280;40618;51.166;10.322;2023-05-10T00:09:24;96626.63;;;13.67;52.26
26865;BME280;40618;51.166;10.322;2023-05-10T00:11:50;96627.63;;;13.65;51.75
26865;BME280;40618;51.166;10.322;2023-05-10T00:14:15;96625.19;;;13.62;52.20
26865;BME280;40618;51.166;10.322;2023-05-10T00:16:41;96630.63;;;13.57;52.31
26865;BME280;40618;51.166;10.322;2023-05-10T00:19:07;96621.00;;;13.59;52.25
26865;BME280;40618;51.166;10.322;2023-05-10T00:21:33;96626.88;;;13.63;52.46
26865;BME280;40618;51.166;10.322;2023-05-10T00:23:59;96623.09;;;13.68;52.50
26865;BME280;40618;51.166;10.322;2023-05-10T00:26:25;96618.63;;;13.70;52.81
26865;BME280;40618;51.166;10.322;2023-05-10T00:28:50;96615.28;;;13.68;52.49
26865;BME280;40618;51.166;10.322;2023-05-10T00:31:16;96611.41;;;13.60;52.52
26865;BME280;40618;51.166;10.322;2023-05-10T00:33:42;96615.63;;;13.62;52.52
26865;BME280;40618;51.166;10.322;2023-05-10T00:36:08;96611.34;;;13.61;52.47
26865;BME280;40618;51.166;10.322;2023-05-10T00:38:33;96611.59;;;13.57;52.77
26865;BME280;40618;51.166;10.322;2023-05-10T00:40:59;96605.47;;;13.58;52.71
26865;BME280;40618;51.166;10.322;2023-05-10T00:43:25;96602.69;;;13.61;52.50
26865;BME280;40618;51.166;10.322;2023-05-10T00:45:50;96602.69;;;13.61;52.50
26865;BME280;40618;51.166;10.322;2023-05-10T00:48:17;96602.03;;;13.57;52.69
26865;BME280;40618;51.166;10.322;2023-05-10T00:50:42;96603.72;;;13.58;52.80
26865;BME280;40618;51.166;10.322;2023-05-10T00:53:08;96602.78;;;13.59;52.52
26865;BME280;40618;51.166;10.322;2023-05-10T00:55:34;96612.94;;;13.64;52.73
26865;BME280;40618;51.166;10.322;2023-05-10T00:58:00;96610.19;;;13.67;52.54
26865;BME280;40618;51.166;10.322;2023-05-10T01:00:26;96607.72;;;13.64;52.69
26865;BME280;40618;51.166;10.322;2023-05-10T01:02:53;96594.81;;;13.62;52.58
26865;BME280;40618;51.166;10.322;2023-05-10T01:05:19;96602.03;;;13.57;52.93
26865;BME280;40618;51.166;10.322;2023-05-10T01:07:44;96606.50;;;13.55;53.00
26865;BME280;40618;51.166;10.322;2023-05-10T01:10:10;96596.91;;;13.56;53.04
26865;BME280;40618;51.166;10.322;2023-05-10T01:12:38;96598.41;;;13.60;53.06
26865;BME280;40618;51.166;10.322;2023-05-10T01:15:10;96594.06;;;13.60;53.23
26865;BME280;40618;51.166;10.322;2023-05-10T01:17:38;96599.38;;;13.59;53.28
26865;BME280;40618;51.166;10.322;2023-05-10T01:20:07;96600.50;;;13.53;53.28
26865;BME280;40618;51.166;10.322;2023-05-10T01:31:18;96600.19;;;13.59;53.58
26865;BME280;40618;51.166;10.322;2023-05-10T01:34:09;96602.78;;;13.59;53.74
26865;BME280;40618;51.166;10.322;2023-05-10T01:37:06;96604.63;;;13.57;53.85
26865;BME280;40618;51.166;10.322;2023-05-10T01:42:17;96605.56;;;13.56;54.08
26865;BME280;40618;51.166;10.322;2023-05-10T01:50:39;96613.69;;;13.50;54.80
26865;BME280;40618;51.166;10.322;2023-05-10T01:53:10;96610.84;;;13.54;55.00
26865;BME280;40618;51.166;10.322;2023-05-10T01:55:49;96603.22;;;13.51;55.03
26865;BME280;40618;51.166;10.322;2023-05-10T01:58:28;96606.06;;;13.47;55.39
26865;BME280;40618;51.166;10.322;2023-05-10T02:01:00;96609.84;;;13.41;55.85
26865;BME280;40618;51.166;10.322;2023-05-10T02:03:29;96604.88;;;13.36;55.89
26865;BME280;40618;51.166;10.322;2023-05-10T02:05:57;96607.63;;;13.33;56.54
26865;BME280;40618;51.166;10.322;2023-05-10T02:08:24;96616.34;;;13.32;57.03
26865;BME280;40618;51.166;10.322;2023-05-10T02:10:54;96606.94;;;13.30;57.02
26865;BME280;40618;51.166;10.322;2023-05-10T02:13:22;96608.13;;;13.24;57.56
26865;BME280;40618;51.166;10.322;2023-05-10T02:15:50;96608.13;;;13.24;57.49
26865;BME280;40618;51.166;10.322;2023-05-10T02:18:18;96603.03;;;13.23;58.08
26865;BME280;40618;51.166;10.322;2023-05-10T02:20:46;96606.78;;;13.17;58.49
26865;BME280;40618;51.166;10.322;2023-05-10T02:23:13;96606.38;;;13.09;58.68
26865;BME280;40618;51.166;10.322;2023-05-10T02:25:40;96609.66;;;13.12;58.98
26865;BME280;40618;51.166;10.322;2023-05-10T02:28:08;96607.97;;;13.11;58.94
26865;BME280;40618;51.166;10.322;2023-05-10T02:30:37;96611.13;;;13.00;59.50
26865;BME280;40618;51.166;10.322;2023-05-10T02:33:04;96617.50;;;12.95;60.03
26865;BME280;40618;51.166;10.322;2023-05-10T02:35:31;96613.22;;;12.94;60.01
26865;BME280;40618;51.166;10.322;2023-05-10T02:37:58;96605.16;;;12.98;59.93
26865;BME280;40618;51.166;10.322;2023-05-10T02:40:26;96606.94;;;12.98;60.33
26865;BME280;40618;51.166;10.322;2023-05-10T02:42:54;96607.72;;;13.00;60.63
26865;BME280;40618;51.166;10.322;2023-05-10T02:45:25;96605.13;;;13.00;60.61
26865;BME280;40618;51.166;10.322;2023-05-10T02:47:54;96608.63;;;12.99;60.61
26865;BME280;40618;51.166;10.322;2023-05-10T02:50:21;96605.84;;;13.02;60.77
26865;BME280;40618;51.166;10.322;2023-05-10T02:52:50;96605.78;;;13.03;61.34
26865;BME280;40618;51.166;10.322;2023-05-10T02:55:21;96607.72;;;13.00;61.25
26865;BME280;40618;51.166;10.322;2023-05-10T02:57:56;96593.78;;;13.01;61.61
26865;BME280;40618;51.166;10.322;2023-05-10T03:00:24;96589.44;;;13.01;61.30
26865;BME280;40618;51.166;10.322;2023-05-10T03:02:50;96589.56;;;12.98;61.79
26865;BME280;40618;51.166;10.322;2023-05-10T03:05:16;96587.84;;;12.99;61.95
26865;BME280;40618;51.166;10.322;2023-05-10T03:07:42;96579.78;;;13.03;62.23
26865;BME280;40618;51.166;10.322;2023-05-10T03:10:09;96583.97;;;13.06;62.17
26865;BME280;40618;51.166;10.322;2023-05-10T03:15:31;96585.91;;;13.02;62.15
26865;BME280;40618;51.166;10.322;2023-05-10T03:18:13;96588.56;;;13.01;62.44
26865;BME280;40618;51.166;10.322;2023-05-10T03:20:48;96598.88;;;13.02;62.64
26865;BME280;40618;51.166;10.322;2023-05-10T03:23:21;96609.38;;;13.01;62.74
26865;BME280;40618;51.166;10.322;2023-05-10T03:25:52;96608.72;;;12.97;62.78
26865;BME280;40618;51.166;10.322;2023-05-10T03:28:18;96603.66;;;12.94;62.87
26865;BME280;40618;51.166;10.322;2023-05-10T03:30:46;96597.03;;;12.89;62.89
26865;BME280;40618;51.166;10.322;2023-05-10T03:33:12;96597.28;;;12.84;63.15
26865;BME280;40618;51.166;10.322;2023-05-10T03:35:40;96599.28;;;12.79;63.25
26865;BME280;40618;51.166;10.322;2023-05-10T03:38:06;96593.41;;;12.75;63.58
26865;BME280;40618;51.166;10.322;2023-05-10T03:40:32;96593.41;;;12.75;63.64
26865;BME280;40618;51.166;10.322;2023-05-10T03:42:58;96595.41;;;12.70;63.50
26865;BME280;40618;51.166;10.322;2023-05-10T03:45:24;96590.22;;;12.70;63.72
26865;BME280;40618;51.166;10.322;2023-05-10T03:47:50;96597.03;;;12.73;64.04
26865;BME280;40618;51.166;10.322;2023-05-10T03:50:16;96593.34;;;12.77;63.86
26865;BME280;40618;51.166;10.322;2023-05-10T03:52:42;96601.34;;;12.72;64.25
26865;BME280;40618;51.166;10.322;2023-05-10T03:55:07;96593.72;;;12.69;64.22
26865;BME280;40618;51.166;10.322;2023-05-10T03:57:33;96592.13;;;12.66;64.54
26865;BME280;40618;51.166;10.322;2023-05-10T03:59:59;96590.53;;;12.64;64.54
26865;BME280;40618;51.166;10.322;2023-05-10T04:02:25;96588.09;;;12.61;64.80
26865;BME280;40618;51.166;10.322;2023-05-10T04:04:51;96590.69;;;12.61;64.62
26865;BME280;40618;51.166;10.322;2023-05-10T04:07:16;96586.34;;;12.61;64.85
26865;BME280;40618;51.166;10.322;2023-05-10T04:09:43;96592.53;;;12.59;65.08
26865;BME280;40618;51.166;10.322;2023-05-10T04:12:08;96592.59;;;12.57;65.00
26865;BME280;40618;51.166;10.322;2023-05-10T04:14:34;96595.19;;;12.57;65.51
26865;BME280;40618;51.166;10.322;2023-05-10T04:17:00;96592.78;;;12.54;65.23
26865;BME280;40618;51.166;10.322;2023-05-10T04:19:32;96599.88;;;12.50;65.54
26865;BME280;40618;51.166;10.322;2023-05-10T04:21:58;96600.81;;;12.49;65.80
26865;BME280;40618;51.166;10.322;2023-05-10T04:24:24;96603.41;;;12.49;65.62
26865;BME280;40618;51.166;10.322;2023-05-10T04:26:50;96597.44;;;12.47;65.98
26865;BME280;40618;51.166;10.322;2023-05-10T04:29:16;96604.25;;;12.50;65.87
26865;BME280;40618;51.166;10.322;2023-05-10T04:31:41;96605.22;;;12.47;66.07
26865;BME280;40618;51.166;10.322;2023-05-10T04:34:07;96617.50;;;12.44;65.96
26865;BME280;40618;51.166;10.322;2023-05-10T04:36:33;96623.03;;;12.38;66.44
26865;BME280;40618;51.166;10.322;2023-05-10T04:39:00;96617.41;;;12.29;66.39
26865;BME280;40618;51.166;10.322;2023-05-10T04:41:28;96620.44;;;12.20;66.42
26865;BME280;40618;51.166;10.322;2023-05-10T04:43:53;96626.00;;;12.12;67.18
26865;BME280;40618;51.166;10.322;2023-05-10T04:46:19;96626.41;;;12.05;66.89
26865;BME280;40618;51.166;10.322;2023-05-10T04:48:45;96622.38;;;11.99;67.33
26865;BME280;40618;51.166;10.322;2023-05-10T04:51:11;96624.38;;;11.92;67.22
26865;BME280;40618;51.166;10.322;2023-05-10T04:53:37;96621.31;;;11.84;67.94
26865;BME280;40618;51.166;10.322;2023-05-10T04:56:03;96630.09;;;11.81;67.79
26865;BME280;40618;51.166;10.322;2023-05-10T04:58:29;96624.59;;;11.70;67.78
26865;BME280;40618;51.166;10.322;2023-05-10T05:00:54;96635.25;;;11.64;68.18
26865;BME280;40618;51.166;10.322;2023-05-10T05:03:20;96636.28;;;11.60;68.83
26865;BME280;40618;51.166;10.322;2023-05-10T05:05:45;96637.06;;;11.62;68.95
26865;BME280;40618;51.166;10.322;2023-05-10T05:08:11;96634.19;;;11.68;69.19
26865;BME280;40618;51.166;10.322;2023-05-10T05:10:37;96643.66;;;11.69;69.20
26865;BME280;40618;51.166;10.322;2023-05-10T05:13:03;96631.34;;;11.73;69.35
26865;BME280;40618;51.166;10.322;2023-05-10T05:15:28;96629.38;;;11.78;69.35
26865;BME280;40618;51.166;10.322;2023-05-10T05:17:55;96639.00;;;11.76;69.47
26865;BME280;40618;51.166;10.322;2023-05-10T05:20:21;96635.56;;;11.75;69.30
26865;BME280;40618;51.166;10.322;2023-05-10T05:22:47;96639.91;;;11.75;69.35
26865;BME280;40618;51.166;10.322;2023-05-10T05:25:12;96648.31;;;11.80;69.65
26865;BME280;40618;51.166;10.322;2023-05-10T05:27:38;96650.53;;;11.88;70.02
26865;BME280;40618;51.166;10.322;2023-05-10T05:30:04;96646.19;;;11.88;69.46
26865;BME280;40618;51.166;10.322;2023-05-10T05:32:30;96646.78;;;11.95;69.80
26865;BME280;40618;51.166;10.322;2023-05-10T05:34:56;96647.53;;;11.97;69.81
26865;BME280;40618;51.166;10.322;2023-05-10T05:37:21;96647.38;;;12.00;69.99
26865;BME280;40618;51.166;10.322;2023-05-10T05:39:48;96658.53;;;12.02;69.99
26865;BME280;40618;51.166;10.322;2023-05-10T05:42:14;96660.13;;;12.05;69.92
26865;BME280;40618;51.166;10.322;2023-05-10T05:44:41;96659.28;;;12.04;69.66
26865;BME280;40618;51.166;10.322;2023-05-10T05:47:07;96668.97;;;12.00;69.98
26865;BME280;40618;51.166;10.322;2023-05-10T05:49:33;96661.81;;;12.06;70.48
26865;BME280;40618;51.166;10.322;2023-05-10T05:51:59;96665.94;;;12.10;70.57
26865;BME280;40618;51.166;10.322;2023-05-10T05:54:29;96669.38;;;12.10;70.14
26865;BME280;40618;51.166;10.322;2023-05-10T05:56:58;96668.59;;;12.08;70.26
26865;BME280;40618;51.166;10.322;2023-05-10T05:59:25;96671.19;;;12.08;70.49
26865;BME280;40618;51.166;10.322;2023-05-10T06:01:51;96672.19;;;12.06;70.43
26865;BME280;40618;51.166;10.322;2023-05-10T06:04:18;96677.44;;;12.04;71.02
26865;BME280;40618;51.166;10.322;2023-05-10T06:06:44;96685.22;;;12.04;70.50
26865;BME280;40618;51.166;10.322;2023-05-10T06:09:10;96682.59;;;12.06;70.84
26865;BME280;40618;51.166;10.322;2023-05-10T06:11:36;96687.69;;;12.07;70.92
26865;BME280;40618;51.166;10.322;2023-05-10T06:14:04;96691.03;;;12.09;71.08
26865;BME280;40618;51.166;10.322;2023-05-10T06:16:31;96696.16;;;12.11;70.95
26865;BME280;40618;51.166;10.322;2023-05-10T06:18:57;96690.28;;;12.07;71.14
26865;BME280;40618;51.166;10.322;2023-05-10T06:21:23;96701.41;;;12.09;71.32
26865;BME280;40618;51.166;10.322;2023-05-10T06:23:48;96699.69;;;12.10;71.04
26865;BME280;40618;51.166;10.322;2023-05-10T06:26:14;96708.38;;;12.09;71.46
26865;BME280;40618;51.166;10.322;2023-05-10T06:28:40;96703.25;;;12.07;71.67
26865;BME280;40618;51.166;10.322;2023-05-10T06:31:06;96708.53;;;12.06;71.63
26865;BME280;40618;51.166;10.322;2023-05-10T06:33:32;96703.34;;;12.06;71.89
26865;BME280;40618;51.166;10.322;2023-05-10T06:35:58;96711.72;;;12.11;71.68
26865;BME280;40618;51.166;10.322;2023-05-10T06:38:24;96715.94;;;12.13;71.89
26865;BME280;40618;51.166;10.322;2023-05-10T06:40:50;96717.69;;;12.13;72.07
26865;BME280;40618;51.166;10.322;2023-05-10T06:43:16;96719.31;;;12.15;71.70
26865;BME280;40618;51.166;10.322;2023-05-10T06:45:42;96711.44;;;12.17;71.90
26865;BME280;40618;51.166;10.322;2023-05-10T06:48:08;96719.84;;;12.22;71.99
26865;BME280;40618;51.166;10.322;2023-05-10T06:50:33;96729.44;;;12.20;71.94
26865;BME280;40618;51.166;10.322;2023-05-10T06:53:00;96728.16;;;12.11;72.24
26865;BME280;40618;51.166;10.322;2023-05-10T06:55:27;96735.06;;;12.11;72.18
26865;BME280;40618;51.166;10.322;2023-05-10T06:57:53;96739.59;;;12.07;72.13
26865;BME280;40618;51.166;10.322;2023-05-10T07:00:19;96737.81;;;12.08;72.17
26865;BME280;40618;51.166;10.322;2023-05-10T07:02:46;96742.13;;;12.09;72.34
26865;BME280;40618;51.166;10.322;2023-05-10T07:05:12;96735.16;;;12.09;72.27
26865;BME280;40618;51.166;10.322;2023-05-10T07:07:38;96745.53;;;12.09;72.54
26865;BME280;40618;51.166;10.322;2023-05-10T07:10:04;96742.75;;;12.14;72.37
26865;BME280;40618;51.166;10.322;2023-05-10T07:12:30;96744.31;;;12.16;72.58
26865;BME280;40618;51.166;10.322;2023-05-10T07:14:56;96743.34;;;12.19;73.02
26865;BME280;40618;51.166;10.322;2023-05-10T07:17:22;96745.66;;;12.25;73.05
26865;BME280;40618;51.166;10.322;2023-05-10T07:19:47;96754.19;;;12.27;73.04
26865;BME280;40618;51.166;10.322;2023-05-10T07:22:14;96763.03;;;12.23;73.07
26865;BME280;40618;51.166;10.322;2023-05-10T07:24:40;96763.91;;;12.24;72.79
26865;BME280;40618;51.166;10.322;2023-05-10T07:27:05;96759.78;;;12.19;72.97
26865;BME280;40618;51.166;10.322;2023-05-10T07:29:31;96771.34;;;12.12;72.86
26865;BME280;40618;51.166;10.322;2023-05-10T07:31:58;96771.72;;;12.05;73.02
26865;BME280;40618;51.166;10.322;2023-05-10T07:34:23;96771.16;;;11.98;73.47
26865;BME280;40618;51.166;10.322;2023-05-10T07:36:49;96779.09;;;11.95;73.23
26865;BME280;40618;51.166;10.322;2023-05-10T07:39:15;96780.75;;;11.96;73.31
26865;BME280;40618;51.166;10.322;2023-05-10T07:41:41;96771.22;;;11.96;73.50
26865;BME280;40618;51.166;10.322;2023-05-10T07:44:07;96778.88;;;11.99;73.47
26865;BME280;40618;51.166;10.322;2023-05-10T07:46:33;96783.81;;;12.04;73.42
26865;BME280;40618;51.166;10.322;2023-05-10T07:48:58;96776.69;;;12.09;73.45
26865;BME280;40618;51.166;10.322;2023-05-10T07:51:24;96782.66;;;12.11;73.80
26865;BME280;40618;51.166;10.322;2023-05-10T07:53:49;96784.25;;;12.14;73.65
26865;BME280;40618;51.166;10.322;2023-05-10T07:56:29;96779.00;;;12.15;73.84
26865;BME280;40618;51.166;10.322;2023-05-10T07:59:00;96783.88;;;12.22;73.89
26865;BME280;40618;51.166;10.322;2023-05-10T08:01:30;96790.59;;;12.26;74.02
26865;BME280;40618;51.166;10.322;2023-05-10T08:04:00;96798.28;;;12.29;73.90
26865;BME280;40618;51.166;10.322;2023-05-10T08:06:26;96799.72;;;12.34;73.99
26865;BME280;40618;51.166;10.322;2023-05-10T08:08:55;96799.25;;;12.44;74.10
26865;BME280;40618;51.166;10.322;2023-05-10T08:11:21;96805.00;;;12.50;74.06
26865;BME280;40618;51.166;10.322;2023-05-10T08:13:48;96806.00;;;12.48;73.94
26865;BME280;40618;51.166;10.322;2023-05-10T08:16:16;96806.53;;;12.55;74.18
26865;BME280;40618;51.166;10.322;2023-05-10T08:18:44;96816.66;;;12.61;74.47
26865;BME280;40618;51.166;10.322;2023-05-10T08:21:11;96817.28;;;12.66;74.37
26865;BME280;40618;51.166;10.322;2023-05-10T08:23:38;96814.59;;;12.67;74.32
26865;BME280;40618;51.166;10.322;2023-05-10T08:26:04;96817.19;;;12.67;74.11
26865;BME280;40618;51.166;10.322;2023-05-10T08:28:30;96814.50;;;12.69;74.16
26865;BME280;40618;51.166;10.322;2023-05-10T08:30:55;96817.03;;;12.70;74.04
26865;BME280;40618;51.166;10.322;2023-05-10T08:33:21;96825.66;;;12.71;74.04
26865;BME280;40618;51.166;10.322;2023-05-10T08:35:47;96825.66;;;12.71;73.93
26865;BME280;40618;51.166;10.322;2023-05-10T08:38:13;96823.00;;;12.73;73.96
26865;BME280;40618;51.166;10.322;2023-05-10T08:40:43;96822.00;;;12.75;74.01
26865;BME280;40618;51.166;10.322;2023-05-10T08:43:10;96822.78;;;12.77;74.12
26865;BME280;40618;51.166;10.322;2023-05-10T08:45:39;96836.38;;;12.82;74.11
26865;BME280;40618;51.166;10.322;2023-05-10T08:48:07;96826.75;;;12.84;73.90
26865;BME280;40618;51.166;10.322;2023-05-10T08:50:41;96823.06;;;12.89;73.91
26865;BME280;40618;51.166;10.322;2023-05-10T08:53:13;96827.28;;;12.91;74.01
26865;BME280;40618;51.166;10.322;2023-05-10T08:55:40;96837.16;;;13.02;74.14
26865;BME280;40618;51.166;10.322;2023-05-10T08:58:09;96828.91;;;13.11;74.24
26865;BME280;40618;51.166;10.322;2023-05-10T09:00:35;96834.47;;;13.21;74.24
26865;BME280;40618;51.166;10.322;2023-05-10T09:03:04;96832.31;;;13.29;74.27
26865;BME280;40618;51.166;10.322;2023-05-10T09:05:31;96844.31;;;13.32;74.18
26865;BME280;40618;51.166;10.322;2023-05-10T09:07:57;96847.09;;;13.29;73.83
26865;BME280;40618;51.166;10.322;2023-05-10T09:10:26;96852.41;;;13.26;74.03
26865;BME280;40618;51.166;10.322;2023-05-10T09:12:53;96854.19;;;13.25;74.25
26865;BME280;40618;51.166;10.322;2023-05-10T09:15:21;96858.41;;;13.28;74.29
26865;BME280;40618;51.166;10.322;2023-05-10T09:17:48;96857.25;;;13.33;74.20
26865;BME280;40618;51.166;10.322;2023-05-10T09:20:15;96855.38;;;13.37;74.28
26865;BME280;40618;51.166;10.322;2023-05-10T09:22:42;96872.31;;;13.27;74.06
26865;BME280;40618;51.166;10.322;2023-05-10T09:25:10;96883.94;;;13.19;74.00
26865;BME280;40618;51.166;10.322;2023-05-10T09:27:41;96895.09;;;13.04;73.85
26865;BME280;40618;51.166;10.322;2023-05-10T09:30:10;96894.38;;;12.83;73.75
26865;BME280;40618;51.166;10.322;2023-05-10T09:32:49;96893.66;;;12.62;73.98
26865;BME280;40618;51.166;10.322;2023-05-10T09:35:18;96901.94;;;12.51;74.23
26865;BME280;40618;51.166;10.322;2023-05-10T09:37:47;96894.44;;;12.45;74.67
26865;BME280;40618;51.166;10.322;2023-05-10T09:40:19;96894.66;;;12.40;74.76
26865;BME280;40618;51.166;10.322;2023-05-10T09:45:30;96898.16;;;12.39;74.81
26865;BME280;40618;51.166;10.322;2023-05-10T09:47:58;96903.66;;;12.33;74.65
26865;BME280;40618;51.166;10.322;2023-05-10T09:50:24;96902.72;;;12.34;75.07
26865;BME280;40618;51.166;10.322;2023-05-10T09:55:23;96901.09;;;12.50;75.46
26865;BME280;40618;51.166;10.322;2023-05-10T09:57:59;96910.16;;;12.61;75.46
26865;BME280;40618;51.166;10.322;2023-05-10T10:00:25;96899.25;;;12.72;75.51
26865;BME280;40618;51.166;10.322;2023-05-10T10:02:56;96907.28;;;12.84;75.68
26865;BME280;40618;51.166;10.322;2023-05-10T10:05:33;96904.78;;;13.00;75.76
26865;BME280;40618;51.166;10.322;2023-05-10T10:08:03;96908.56;;;13.12;75.65
26865;BME280;40618;51.166;10.322;2023-05-10T10:10:31;96897.84;;;13.18;75.55
26865;BME280;40618;51.166;10.322;2023-05-10T10:12:57;96899.16;;;13.27;75.68
26865;BME280;40618;51.166;10.322;2023-05-10T10:15:24;96906.44;;;13.38;75.51
26865;BME280;40618;51.166;10.322;2023-05-10T10:17:51;96904.25;;;13.48;75.58
26865;BME280;40618;51.166;10.322;2023-05-10T10:20:19;96896.34;;;13.67;75.64
26865;BME280;40618;51.166;10.322;2023-05-10T10:22:46;96899.88;;;13.82;75.29
26865;BME280;40618;51.166;10.322;2023-05-10T10:25:13;96906.63;;;13.86;75.17
26865;BME280;40618;51.166;10.322;2023-05-10T10:30:43;96907.72;;;13.98;75.10
26865;BME280;40618;51.166;10.322;2023-05-10T10:36:16;96899.44;;;14.07;74.42
26865;BME280;40618;51.166;10.322;2023-05-10T10:41:35;96910.94;;;14.03;74.39
26865;BME280;40618;51.166;10.322;2023-05-10T10:57:51;96900.13;;;14.27;73.85
26865;BME280;40618;51.166;10.322;2023-05-10T11:00:27;96904.69;;;14.39;74.15
26865;BME280;40618;51.166;10.322;2023-05-10T11:02:58;96903.94;;;14.53;73.97
26865;BME280;40618;51.166;10.322;2023-05-10T11:05:49;96893.00;;;14.62;73.77
26865;BME280;40618;51.166;10.322;2023-05-10T11:08:26;96889.22;;;14.84;73.94
26865;BME280;40618;51.166;10.322;2023-05-10T11:19:03;96894.25;;;15.33;73.13
26865;BME280;40618;51.166;10.322;2023-05-10T11:21:31;96900.00;;;15.24;72.72
26865;BME280;40618;51.166;10.322;2023-05-10T11:23:59;96903.25;;;15.28;72.71
26865;BME280;40618;51.166;10.322;2023-05-10T11:26:31;96897.13;;;15.29;72.35
26865;BME280;40618;51.166;10.322;2023-05-10T11:28:59;96887.75;;;15.40;72.50
26865;BME280;40618;51.166;10.322;2023-05-10T11:31:27;96889.44;;;15.56;72.46
26865;BME280;40618;51.166;10.322;2023-05-10T11:33:55;96897.66;;;15.64;71.79
26865;BME280;40618;51.166;10.322;2023-05-10T11:36:25;96898.69;;;15.62;72.08
26865;BME280;40618;51.166;10.322;2023-05-10T11:38:52;96901.66;;;15.55;71.12
26865;BME280;40618;51.166;10.322;2023-05-10T11:41:20;96898.84;;;15.44;71.22
26865;BME280;40618;51.166;10.322;2023-05-10T11:43:53;96896.59;;;15.38;71.09
26865;BME280;40618;51.166;10.322;2023-05-10T11:46:21;96901.50;;;15.28;71.43
26865;BME280;40618;51.166;10.322;2023-05-10T11:48:50;96908.84;;;15.21;71.45
26865;BME280;40618;51.166;10.322;2023-05-10T11:51:22;96909.78;;;15.20;71.28
26865;BME280;40618;51.166;10.322;2023-05-10T11:53:50;96910.50;;;15.22;71.30
26865;BME280;40618;51.166;10.322;2023-05-10T11:56:18;96915.72;;;15.22;70.66
26865;BME280;40618;51.166;10.322;2023-05-10T11:58:44;96913.25;;;15.35;71.03
26865;BME280;40618;51.166;10.322;2023-05-10T12:01:12;96910.84;;;15.47;71.14
26865;BME280;40618;51.166;10.322;2023-05-10T12:03:38;96913.94;;;15.53;70.98
26865;BME280;40618;51.166;10.322;2023-05-10T12:06:05;96903.31;;;15.56;70.55
26865;BME280;40618;51.166;10.322;2023-05-10T12:08:32;96910.72;;;15.64;70.56
26865;BME280;40618;51.166;10.322;2023-05-10T12:11:06;96913.69;;;15.72;70.75
26865;BME280;40618;51.166;10.322;2023-05-10T12:13:38;96917.13;;;15.73;70.62
26865;BME280;40618;51.166;10.322;2023-05-10T12:16:21;96918.94;;;15.72;69.98
26865;BME280;40618;51.166;10.322;2023-05-10T12:18:49;96913.91;;;15.69;69.94
26865;BME280;40618;51.166;10.322;2023-05-10T12:21:21;96926.66;;;15.74;69.89
26865;BME280;40618;51.166;10.322;2023-05-10T12:23:50;96923.22;;;15.73;70.12
26865;BME280;40618;51.166;10.322;2023-05-10T12:26:17;96926.38;;;15.79;69.82
26865;BME280;40618;51.166;10.322;2023-05-10T12:28:43;96920.00;;;15.84;69.79
26865;BME280;40618;51.166;10.322;2023-05-10T12:31:09;96917.56;;;15.96;69.87
26865;BME280;40618;51.166;10.322;2023-05-10T12:33:36;96923.28;;;16.02;69.73
26865;BME280;40618;51.166;10.322;2023-05-10T12:36:04;96927.47;;;16.05;69.47
26865;BME280;40618;51.166;10.322;2023-05-10T12:38:34;96928.03;;;15.96;69.54
26865;BME280;40618;51.166;10.322;2023-05-10T12:41:05;96926.44;;;15.93;69.54
26865;BME280;40618;51.166;10.322;2023-05-10T12:43:35;96938.56;;;15.94;69.64
26865;BME280;40618;51.166;10.322;2023-05-10T12:46:19;96930.63;;;15.96;69.42
26865;BME280;40618;51.166;10.322;2023-05-10T12:48:45;96937.53;;;15.97;69.13
26865;BME280;40618;51.166;10.322;2023-05-10T12:51:11;96938.28;;;15.99;68.90
26865;BME280;40618;51.166;10.322;2023-05-10T12:53:41;96939.97;;;16.00;69.09
26865;BME280;40618;51.166;10.322;2023-05-10T12:56:07;96945.19;;;16.00;69.41
26865;BME280;40618;51.166;10.322;2023-05-10T12:58:32;96949.56;;;15.99;68.83
26865;BME280;40618;51.166;10.322;2023-05-10T13:00:59;96944.34;;;15.99;68.62
26865;BME280;40618;51.166;10.322;2023-05-10T13:03:25;96946.88;;;16.01;69.04
26865;BME280;40618;51.166;10.322;2023-05-10T13:05:51;96946.69;;;16.04;69.01
26865;BME280;40618;51.166;10.322;2023-05-10T13:08:17;96947.50;;;16.04;68.96
26865;BME280;40618;51.166;10.322;2023-05-10T13:10:42;96950.50;;;15.98;68.43
26865;BME280;40618;51.166;10.322;2023-05-10T13:13:08;96951.44;;;15.97;68.56
26865;BME280;40618;51.166;10.322;2023-05-10T13:15:34;96946.59;;;15.91;68.42
26865;BME280;40618;51.166;10.322;2023-05-10T13:18:00;96955.53;;;15.87;68.60
26865;BME280;40618;51.166;10.322;2023-05-10T13:20:26;96947.22;;;15.95;68.68
26865;BME280;40618;51.166;10.322;2023-05-10T13:22:52;96947.22;;;15.95;67.91
26865;BME280;40618;51.166;10.322;2023-05-10T13:25:18;96941.81;;;15.98;67.89
26865;BME280;40618;51.166;10.322;2023-05-10T13:27:44;96949.84;;;16.09;68.20
26865;BME280;40618;51.166;10.322;2023-05-10T13:30:10;96944.09;;;16.18;68.51
26865;BME280;40618;51.166;10.322;2023-05-10T13:32:39;96949.84;;;16.23;68.09
26865;BME280;40618;51.166;10.322;2023-05-10T13:35:05;96947.78;;;16.29;68.25
26865;BME280;40618;51.166;10.322;2023-05-10T13:37:31;96951.69;;;16.36;68.25
26865;BME280;40618;51.166;10.322;2023-05-10T13:40:00;96951.81;;;16.49;67.95
26865;BME280;40618;51.166;10.322;2023-05-10T13:42:26;96947.88;;;16.56;67.89
26865;BME280;40618;51.166;10.322;2023-05-10T13:44:52;96949.25;;;16.62;67.91
26865;BME280;40618;51.166;10.322;2023-05-10T13:47:17;96954.28;;;16.65;67.70
26865;BME280;40618;51.166;10.322;2023-05-10T13:49:43;96951.75;;;16.63;67.41